Hlavní strana
METAR-TAF:

METAR-TAF

Letiště :

Letiště Longyearbyen

Longyearbyen, Norsko

zeměpisná šířka: 78-15N, zeměpisná délka: 015-28E, výška: 2 m

Aktuální stav počasí

Zpráva byla vytvořena před 15 minutami, v 15:50 UTC
Jihovýchodní vítr 21 kt
Teplota -11°C
Vlhkost vzduchu 72%
Tlak 992 hPa
Viditelnost 10 km a více
Žádná oblačnost pod 1500 m, nevyskytují se cumulonimby.

METAR: ENSB 281550Z 14021KT CAVOK M11/M15 Q0992 RMK WIND 1400FT 12022KT

Čas: 17:05 (16:05 UTC)

Předpověď počasí

Předpověď platná od 28 v 12 UTC do 01 v 12 UTC
Východojihovýchodní vítr 8 kt
Viditelnost 10 km a více
Skoro jasno ve výšce 2000 ft
Polojasno ve výšce 4000 ft
Dočasný
od 28 v 12 UTC do 28 v 20 UTC
Východojihovýchodní vítr 20 kt

TAF: ENSB 2812/0112 12008KT 9999 FEW020 SCT040 TEMPO 2812/2820 12020KT

Stav a předpovědi počasí z více než 4 000 letišť (zprávy METAR a TAF).

Červené a žluté tečky na mapě představují dostupné meteorologické stanice.

Když kurzor umístíte na tečku, zobrazí se název stanice.

Pak kliknutím zobrazíte stav a předpověď počasí.

Chcete-li změnit mapu, kliknutím na zelené tlačítko se znaménkem +mapu přiblížíte, kliknutím na zelené tlačítko se znaménkem – mapu oddálíte a kliknutím na zelené šipky přejdete na sousední mapy.


METAR-TAF: